Time;durP1;ratioP1;P1;durP2;ratioP2;P2;SDS_P1;SDS_P2;PMS_P1;PMS_P2;Temp;Humidity;BMP_temperature;BMP_pressure;BME280_temperature;BME280_humidity;BME280_pressure;Samples;Min_cycle;Max_cycle;Signal;HPM_P1;HPM_P2
2023/09/15 00:01:39;;;;;;;5.10;4.30;;;14.30;1.00;;;;;;5080179;28;20458;-74
2023/09/15 00:04:06;;;;;;;4.17;3.77;;;14.30;1.00;;;;;;5080487;28;20468;-74
2023/09/15 00:06:35;;;;;;;3.90;3.50;;;14.30;1.00;;;;;;5079831;28;20493;-73
2023/09/15 00:09:03;;;;;;;3.93;3.40;;;14.20;1.00;;;;;;5082337;28;20477;-73
2023/09/15 00:11:39;;;;;;;9.63;4.27;;;14.20;1.00;;;;;;5075850;28;20442;-74
2023/09/15 00:14:07;;;;;;;4.77;3.50;;;14.30;1.00;;;;;;5080788;28;20481;-73
2023/09/15 00:16:35;;;;;;;4.10;3.80;;;14.30;1.00;;;;;;5080817;28;20968;-73
2023/09/15 00:19:03;;;;;;;8.50;3.77;;;14.20;1.00;;;;;;5078855;28;20455;-72
2023/09/15 00:21:31;;;;;;;7.97;5.17;;;14.20;1.00;;;;;;5077799;28;20827;-73
2023/09/15 00:23:58;;;;;;;6.00;4.27;;;14.20;1.00;;;;;;5078007;28;20557;-73
2023/09/15 00:26:25;;;;;;;5.57;4.00;;;14.20;1.00;;;;;;5082882;28;20532;-73
2023/09/15 00:28:52;;;;;;;4.73;3.60;;;14.20;1.00;;;;;;5078684;28;20936;-76
2023/09/15 00:31:20;;;;;;;4.97;3.47;;;14.20;1.00;;;;;;5076341;28;20528;-75
2023/09/15 00:33:48;;;;;;;5.30;3.63;;;14.30;1.00;;;;;;5079162;28;20520;-73
2023/09/15 00:36:15;;;;;;;4.47;3.80;;;14.20;1.00;;;;;;5080256;28;20972;-74
2023/09/15 00:38:42;;;;;;;4.00;3.53;;;14.20;1.00;;;;;;5077896;28;21471;-73
2023/09/15 00:41:09;;;;;;;5.33;3.47;;;14.20;1.00;;;;;;5079266;28;20484;-75
2023/09/15 00:43:36;;;;;;;5.27;3.33;;;14.10;1.00;;;;;;5079736;28;20540;-75
2023/09/15 00:46:04;;;;;;;4.07;3.40;;;14.10;1.00;;;;;;5080862;28;20518;-74
2023/09/15 00:48:32;;;;;;;5.83;4.27;;;14.00;1.00;;;;;;5078730;28;20937;-73
2023/09/15 00:51:07;;;;;;;5.80;3.50;;;14.00;1.00;;;;;;5080657;28;20479;-74
2023/09/15 00:53:36;;;;;;;4.67;3.90;;;14.10;1.00;;;;;;5081585;28;20448;-76
2023/09/15 00:56:04;;;;;;;6.27;3.73;;;14.10;1.00;;;;;;5079285;28;20914;-73
2023/09/15 00:58:32;;;;;;;4.63;3.70;;;14.00;1.00;;;;;;5079373;28;20538;-74
2023/09/15 01:00:59;;;;;;;4.40;3.90;;;14.00;1.00;;;;;;5082295;28;20948;-72
2023/09/15 01:03:30;;;;;;;4.60;2.97;;;14.00;1.00;;;;;;5076699;28;20461;-74
2023/09/15 01:05:57;;;;;;;6.27;3.90;;;14.00;1.00;;;;;;5080184;28;20483;-74
2023/09/15 01:08:25;;;;;;;4.53;3.80;;;14.00;1.00;;;;;;5077393;28;20458;-75
2023/09/15 01:10:52;;;;;;;4.23;3.80;;;14.00;1.00;;;;;;5075040;28;20459;-74
2023/09/15 01:13:19;;;;;;;3.73;3.00;;;14.00;1.00;;;;;;5076123;28;20518;-75
2023/09/15 01:15:55;;;;;;;4.17;3.33;;;14.10;1.00;;;;;;5078728;28;20847;-72
2023/09/15 01:18:29;;;;;;;5.07;3.40;;;14.10;1.00;;;;;;5083156;28;21016;-74
2023/09/15 01:21:32;;;;;;;4.73;4.23;;;14.00;1.00;;;;;;5079024;28;20900;-74
2023/09/15 01:24:26;;;;;;;4.87;3.40;;;13.90;1.00;;;;;;5072206;28;21066;-73
2023/09/15 01:27:18;;;;;;;6.83;4.20;;;13.90;1.00;;;;;;5082557;28;20501;-74
2023/09/15 01:29:49;;;;;;;3.57;3.20;;;13.90;1.00;;;;;;5084530;28;20541;-75
2023/09/15 01:32:19;;;;;;;7.10;3.80;;;13.80;1.00;;;;;;5078908;28;21111;-74
2023/09/15 01:34:48;;;;;;;3.83;3.37;;;13.80;1.00;;;;;;5075301;28;20461;-72
2023/09/15 01:37:15;;;;;;;5.07;3.97;;;13.80;1.00;;;;;;5081110;28;20483;-73
2023/09/15 01:39:42;;;;;;;4.63;3.50;;;13.80;1.00;;;;;;5082583;28;20457;-74
2023/09/15 01:42:09;;;;;;;4.17;3.77;;;13.80;1.00;;;;;;5080484;28;20473;-72
2023/09/15 01:44:36;;;;;;;5.00;3.67;;;13.80;1.00;;;;;;5077915;28;20481;-74
2023/09/15 01:47:08;;;;;;;4.07;3.67;;;13.80;1.00;;;;;;5079876;28;20476;-74
2023/09/15 01:49:36;;;;;;;4.90;3.27;;;13.80;1.00;;;;;;5080445;28;20506;-72
2023/09/15 01:52:05;;;;;;;4.67;3.57;;;13.80;1.00;;;;;;5080332;28;20459;-74
2023/09/15 01:54:31;;;;;;;4.40;3.50;;;13.80;1.00;;;;;;5073268;27;20453;-72
2023/09/15 01:56:58;;;;;;;7.20;4.47;;;13.70;1.00;;;;;;5082330;28;20591;-74
2023/09/15 01:59:27;;;;;;;4.30;3.13;;;13.70;1.00;;;;;;5077152;28;20487;-72
2023/09/15 02:01:55;;;;;;;4.20;3.80;;;13.70;1.00;;;;;;5081638;28;20471;-74
2023/09/15 02:04:23;;;;;;;4.77;4.07;;;13.70;1.00;;;;;;5079203;28;20467;-74
2023/09/15 02:06:50;;;;;;;4.60;4.10;;;13.60;1.00;;;;;;5077916;28;20978;-74
2023/09/15 02:09:19;;;;;;;4.03;3.63;;;13.60;1.00;;;;;;5080763;28;20541;-75
2023/09/15 02:11:46;;;;;;;5.97;4.00;;;13.60;1.00;;;;;;5079875;28;20554;-74
2023/09/15 02:14:16;;;;;;;5.30;4.20;;;13.60;1.00;;;;;;5081310;28;21025;-71
2023/09/15 02:16:43;;;;;;;4.20;3.80;;;13.60;1.00;;;;;;5071060;28;20464;-74
2023/09/15 02:19:10;;;;;;;4.50;3.70;;;13.60;1.00;;;;;;5081697;28;20470;-75
2023/09/15 02:21:38;;;;;;;5.17;4.67;;;13.60;1.00;;;;;;5075294;28;20431;-73
2023/09/15 02:24:05;;;;;;;6.60;4.50;;;13.60;1.00;;;;;;5080253;28;20596;-74
2023/09/15 02:26:33;;;;;;;5.40;4.90;;;13.50;1.00;;;;;;5078814;28;20516;-74
2023/09/15 02:29:00;;;;;;;5.47;4.30;;;13.60;1.00;;;;;;5081590;28;20535;-74
2023/09/15 02:31:29;;;;;;;4.27;3.93;;;13.50;1.00;;;;;;5078516;28;20822;-72
2023/09/15 02:33:59;;;;;;;6.87;4.53;;;13.50;1.00;;;;;;5080529;28;20563;-74
2023/09/15 02:36:26;;;;;;;5.70;5.20;;;13.50;1.00;;;;;;5080494;28;20472;-73
2023/09/15 02:38:55;;;;;;;6.10;4.57;;;13.50;1.00;;;;;;5080394;28;21072;-75
2023/09/15 02:41:23;;;;;;;5.23;4.73;;;13.40;1.00;;;;;;5078929;28;20466;-73
2023/09/15 02:43:50;;;;;;;6.80;4.70;;;13.40;1.00;;;;;;5080301;28;20960;-72
2023/09/15 02:46:17;;;;;;;6.60;4.40;;;13.40;1.00;;;;;;5080486;28;20500;-69
2023/09/15 02:48:44;;;;;;;5.50;4.17;;;13.40;1.00;;;;;;5083495;28;20525;-69
2023/09/15 02:51:11;;;;;;;4.37;3.97;;;13.30;1.00;;;;;;5082035;28;20466;-70
2023/09/15 02:53:38;;;;;;;5.00;4.50;;;13.30;1.00;;;;;;5077616;28;20455;-70
2023/09/15 02:56:08;;;;;;;10.03;6.23;;;13.40;1.00;;;;;;5080986;28;20614;-68
2023/09/15 02:58:35;;;;;;;5.90;4.90;;;13.30;1.00;;;;;;5080216;28;20469;-69
2023/09/15 03:01:12;;;;;;;5.43;4.93;;;13.30;1.00;;;;;;5077852;28;20573;-69
2023/09/15 03:03:39;;;;;;;5.97;4.87;;;13.20;1.00;;;;;;5079606;28;20451;-69
2023/09/15 03:06:06;;;;;;;6.30;4.57;;;13.20;1.00;;;;;;5079581;28;20553;-69
2023/09/15 03:08:34;;;;;;;5.30;4.73;;;13.20;1.00;;;;;;5081888;28;20509;-69
2023/09/15 03:11:01;;;;;;;5.17;4.60;;;13.20;1.00;;;;;;5082701;28;20960;-69
2023/09/15 03:13:29;;;;;;;6.13;4.70;;;13.20;1.00;;;;;;5081506;28;20547;-70
2023/09/15 03:15:57;;;;;;;5.63;4.67;;;13.10;1.00;;;;;;5080792;28;20488;-70
2023/09/15 03:18:24;;;;;;;4.53;4.13;;;13.10;1.00;;;;;;5079874;28;20475;-69
2023/09/15 03:20:51;;;;;;;6.20;4.87;;;13.00;1.00;;;;;;5080902;28;20523;-71
2023/09/15 03:23:18;;;;;;;5.27;4.50;;;13.00;1.00;;;;;;5079274;28;20465;-70
2023/09/15 03:25:45;;;;;;;6.30;5.60;;;13.10;1.00;;;;;;5079628;28;20471;-73
2023/09/15 03:28:11;;;;;;;6.90;5.00;;;13.00;1.00;;;;;;5079615;28;20549;-68
2023/09/15 03:30:40;;;;;;;5.70;5.20;;;13.00;1.00;;;;;;5079527;28;20456;-68
2023/09/15 03:33:07;;;;;;;7.10;4.97;;;13.00;1.00;;;;;;5080052;28;20472;-69
2023/09/15 03:35:34;;;;;;;6.43;5.20;;;13.00;1.00;;;;;;5077489;28;20539;-71
2023/09/15 03:38:02;;;;;;;5.33;4.47;;;13.00;1.00;;;;;;5082129;28;20823;-70
2023/09/15 03:40:30;;;;;;;7.87;5.73;;;13.00;1.00;;;;;;5082262;28;21690;-67
2023/09/15 03:42:57;;;;;;;5.67;5.07;;;12.90;1.00;;;;;;5080835;28;20967;-70
2023/09/15 03:45:24;;;;;;;8.10;5.83;;;12.80;1.00;;;;;;5076925;28;20560;-69
2023/09/15 03:47:52;;;;;;;7.93;6.00;;;12.80;1.00;;;;;;5081202;28;20484;-69
2023/09/15 03:50:21;;;;;;;5.67;5.13;;;12.80;1.00;;;;;;5079559;28;20592;-69
2023/09/15 03:52:48;;;;;;;7.40;5.80;;;12.70;1.00;;;;;;5081448;28;20470;-69
2023/09/15 03:55:17;;;;;;;7.80;5.97;;;12.70;1.00;;;;;;5076803;28;20481;-68
2023/09/15 03:57:44;;;;;;;6.20;5.60;;;12.80;1.00;;;;;;5084087;28;20538;-76
2023/09/15 04:00:15;;;;;;;51.33;35.67;;;12.70;1.00;;;;;;5082673;28;20472;-75
2023/09/15 04:02:42;;;;;;;6.20;5.60;;;12.70;1.00;;;;;;5083159;28;20482;-71
2023/09/15 04:05:11;;;;;;;7.27;6.57;;;12.70;1.00;;;;;;5083872;28;20475;-74
2023/09/15 04:07:38;;;;;;;8.37;5.10;;;12.70;1.00;;;;;;5077955;28;20959;-74
2023/09/15 04:10:06;;;;;;;7.00;6.33;;;12.70;1.00;;;;;;5082796;28;20459;-74
2023/09/15 04:12:33;;;;;;;9.90;8.93;;;12.70;1.00;;;;;;5077909;28;20458;-73
2023/09/15 04:15:00;;;;;;;7.30;6.57;;;12.70;1.00;;;;;;5078984;28;20477;-74
2023/09/15 04:17:27;;;;;;;16.60;10.03;;;12.70;1.00;;;;;;5080335;28;20456;-72
2023/09/15 04:19:54;;;;;;;6.40;5.60;;;12.70;1.00;;;;;;5076491;28;20468;-73
2023/09/15 04:22:22;;;;;;;8.73;6.63;;;12.70;1.00;;;;;;5082075;28;21014;-75
2023/09/15 04:24:51;;;;;;;7.00;6.40;;;12.70;1.00;;;;;;5080562;28;20474;-73
2023/09/15 04:27:18;;;;;;;7.67;6.77;;;12.70;1.00;;;;;;5082569;28;20467;-74
2023/09/15 04:29:52;;;;;;;6.97;6.30;;;12.70;1.00;;;;;;5083262;28;20474;-74
2023/09/15 04:32:24;;;;;;;6.97;6.27;;;12.70;1.00;;;;;;5077984;28;20463;-77
2023/09/15 04:34:51;;;;;;;7.80;5.70;;;12.70;1.00;;;;;;5076685;28;20499;-74
2023/09/15 04:37:19;;;;;;;7.90;6.30;;;12.70;1.00;;;;;;5080550;28;20950;-74
2023/09/15 04:39:49;;;;;;;7.17;6.47;;;12.70;1.00;;;;;;5080994;28;20462;-74
2023/09/15 04:42:16;;;;;;;9.27;6.70;;;12.80;1.00;;;;;;5078961;28;20984;-76
2023/09/15 04:44:45;;;;;;;8.10;7.30;;;12.80;1.00;;;;;;5077382;28;20455;-74
2023/09/15 04:47:13;;;;;;;8.37;6.30;;;12.80;1.00;;;;;;5081464;28;20459;-72
2023/09/15 04:49:43;;;;;;;7.23;6.40;;;12.90;1.00;;;;;;5077933;28;20495;-75
2023/09/15 04:52:10;;;;;;;7.20;6.50;;;12.90;1.00;;;;;;5078966;28;20467;-73
2023/09/15 04:54:37;;;;;;;6.77;6.13;;;12.90;1.00;;;;;;5080021;28;20489;-74
2023/09/15 04:57:06;;;;;;;9.00;6.83;;;12.90;1.00;;;;;;5076653;28;20460;-73
2023/09/15 04:59:33;;;;;;;9.70;7.17;;;12.90;1.00;;;;;;5078091;28;20462;-73
2023/09/15 05:02:00;;;;;;;6.60;5.97;;;12.90;1.00;;;;;;5077261;28;20447;-74
2023/09/15 05:04:27;;;;;;;7.83;5.93;;;12.90;1.00;;;;;;5078477;28;21088;-73
2023/09/15 05:06:54;;;;;;;6.00;5.43;;;13.00;1.00;;;;;;5080095;28;20455;-73
2023/09/15 05:09:21;;;;;;;7.07;6.37;;;13.00;1.00;;;;;;5078289;28;20480;-73
2023/09/15 05:11:48;;;;;;;11.33;7.00;;;13.10;1.00;;;;;;5080081;28;20570;-72
2023/09/15 05:14:17;;;;;;;6.33;5.73;;;13.10;1.00;;;;;;5081960;28;20467;-71
2023/09/15 05:16:46;;;;;;;6.83;6.13;;;13.10;1.00;;;;;;5077484;28;20441;-71
2023/09/15 05:19:13;;;;;;;7.00;6.30;;;13.10;1.00;;;;;;5081428;28;20557;-74
2023/09/15 05:21:40;;;;;;;9.93;6.80;;;13.10;1.00;;;;;;5079205;28;20471;-75
2023/09/15 05:24:07;;;;;;;6.57;5.97;;;13.10;1.00;;;;;;5082024;28;20471;-75
2023/09/15 05:26:35;;;;;;;7.30;6.60;;;13.10;1.00;;;;;;5084090;28;20472;-74
2023/09/15 05:29:03;;;;;;;6.13;5.53;;;13.20;1.00;;;;;;5079526;28;20455;-74
2023/09/15 05:31:34;;;;;;;8.47;6.13;;;13.20;1.00;;;;;;5081430;28;20883;-74
2023/09/15 05:34:02;;;;;;;7.43;6.60;;;13.20;1.00;;;;;;5078800;28;20470;-72
2023/09/15 05:36:29;;;;;;;10.30;7.47;;;13.30;1.00;;;;;;5082312;28;20472;-73
2023/09/15 05:38:56;;;;;;;10.40;7.73;;;13.30;1.00;;;;;;5076431;28;22314;-72
2023/09/15 05:41:23;;;;;;;6.97;6.33;;;13.30;1.00;;;;;;5078944;28;20485;-73
2023/09/15 05:43:50;;;;;;;7.93;5.73;;;13.40;1.00;;;;;;5049873;28;20562;-73
2023/09/15 05:46:17;;;;;;;9.30;7.63;;;13.50;1.00;;;;;;5077375;28;20509;-73
2023/09/15 05:48:46;;;;;;;8.40;6.50;;;13.60;1.00;;;;;;5081754;28;20510;-74
2023/09/15 05:51:13;;;;;;;10.13;6.70;;;13.60;1.00;;;;;;5081409;28;20994;-72
2023/09/15 05:53:40;;;;;;;6.97;5.93;;;13.70;1.00;;;;;;5076525;28;20497;-73
2023/09/15 05:56:08;;;;;;;9.27;6.70;;;13.70;1.00;;;;;;5078360;28;20555;-73
2023/09/15 05:58:35;;;;;;;7.93;6.80;;;13.80;1.00;;;;;;5075198;28;21337;-75
2023/09/15 06:01:03;;;;;;;7.70;6.93;;;13.80;1.00;;;;;;5080253;28;20458;-74
2023/09/15 06:03:30;;;;;;;7.17;6.30;;;14.00;1.00;;;;;;5078390;28;20612;-73
2023/09/15 06:05:58;;;;;;;9.10;6.97;;;14.00;1.00;;;;;;5084649;28;20468;-77
2023/09/15 06:08:25;;;;;;;7.50;6.80;;;14.00;1.00;;;;;;5083498;28;20489;-76
2023/09/15 06:10:53;;;;;;;8.43;6.97;;;14.00;1.00;;;;;;5087653;27;20551;-76
2023/09/15 06:13:21;;;;;;;9.43;6.90;;;14.10;1.00;;;;;;5081168;28;20508;-75
2023/09/15 06:15:48;;;;;;;9.93;6.00;;;14.20;1.00;;;;;;5080675;28;21393;-76
2023/09/15 06:18:15;;;;;;;7.37;6.57;;;14.20;1.00;;;;;;5080678;28;20512;-69
2023/09/15 06:20:41;;;;;;;9.30;6.80;;;14.30;1.00;;;;;;5083324;28;20465;-72
2023/09/15 06:23:10;;;;;;;8.47;6.90;;;14.40;1.00;;;;;;5088125;28;20520;-69
2023/09/15 06:25:39;;;;;;;8.60;7.50;;;14.50;1.00;;;;;;5087580;28;20547;-68
2023/09/15 06:28:07;;;;;;;7.90;6.50;;;14.50;1.00;;;;;;5083394;28;20481;-69
2023/09/15 06:30:34;;;;;;;7.90;6.63;;;14.60;1.00;;;;;;5076486;28;20552;-70
2023/09/15 06:33:01;;;;;;;8.13;6.17;;;14.60;1.00;;;;;;5080577;28;20465;-70
2023/09/15 06:35:28;;;;;;;7.70;6.57;;;14.70;1.00;;;;;;5082573;28;20484;-69
2023/09/15 06:37:55;;;;;;;6.70;6.10;;;14.80;1.00;;;;;;5075557;28;20613;-69
2023/09/15 06:40:23;;;;;;;7.87;6.30;;;14.90;1.00;;;;;;5079846;28;20516;-68
2023/09/15 06:42:50;;;;;;;7.90;6.27;;;15.00;1.00;;;;;;5078395;28;20494;-68
2023/09/15 06:45:17;;;;;;;8.77;6.40;;;15.00;1.00;;;;;;5079478;28;20868;-68
2023/09/15 06:47:44;;;;;;;6.20;5.67;;;15.10;1.00;;;;;;5082590;28;20474;-69
2023/09/15 06:50:11;;;;;;;9.27;6.57;;;15.10;1.00;;;;;;5079368;28;20498;-68
2023/09/15 06:52:38;;;;;;;9.67;6.57;;;15.20;1.00;;;;;;5080169;28;20513;-72
2023/09/15 06:55:05;;;;;;;8.57;5.93;;;15.20;1.00;;;;;;5084942;28;20544;-70
2023/09/15 06:57:35;;;;;;;6.00;5.50;;;15.20;1.00;;;;;;5084659;28;20989;-71
2023/09/15 07:00:03;;;;;;;8.10;7.30;;;15.30;1.00;;;;;;5087442;28;20466;-70
2023/09/15 07:02:30;;;;;;;7.23;6.43;;;15.30;1.00;;;;;;5083808;28;20846;-72
2023/09/15 07:04:57;;;;;;;7.73;6.40;;;15.40;1.00;;;;;;5082787;28;20980;-70
2023/09/15 07:07:24;;;;;;;8.17;6.13;;;15.60;1.00;;;;;;5081891;28;20472;-68
2023/09/15 07:09:51;;;;;;;6.17;5.43;;;15.70;1.00;;;;;;5079955;28;20559;-71
2023/09/15 07:12:18;;;;;;;6.63;5.40;;;15.70;1.00;;;;;;5081017;28;20884;-70
2023/09/15 07:14:49;;;;;;;5.63;5.13;;;15.80;1.00;;;;;;5079151;28;20466;-70
2023/09/15 07:17:16;;;;;;;7.03;5.63;;;15.90;1.00;;;;;;5062289;28;20473;-71
2023/09/15 07:19:44;;;;;;;6.40;5.80;;;16.10;1.00;;;;;;5080747;28;20533;-70
2023/09/15 07:22:11;;;;;;;6.37;5.30;;;16.10;1.00;;;;;;5083138;28;20525;-70
2023/09/15 07:24:40;;;;;;;7.73;5.57;;;16.30;1.00;;;;;;5081701;28;20533;-70
2023/09/15 07:27:08;;;;;;;5.47;4.97;;;16.40;1.00;;;;;;5081092;28;20979;-71
2023/09/15 07:29:36;;;;;;;6.80;5.10;;;16.50;1.00;;;;;;5079849;28;20482;-72
2023/09/15 07:32:04;;;;;;;7.53;5.77;;;16.50;1.00;;;;;;5081074;28;20469;-70
2023/09/15 07:34:31;;;;;;;6.73;5.27;;;16.70;1.00;;;;;;5078127;28;20559;-73
2023/09/15 07:37:00;;;;;;;7.03;5.40;;;16.80;1.00;;;;;;5079151;28;20466;-74
2023/09/15 07:39:29;;;;;;;6.03;5.43;;;16.80;1.00;;;;;;5076554;28;21772;-72
2023/09/15 07:41:57;;;;;;;6.30;5.70;;;17.00;1.00;;;;;;5077965;28;20853;-71
2023/09/15 07:44:24;;;;;;;11.50;5.83;;;17.20;1.00;;;;;;5079982;28;20466;-71
2023/09/15 07:46:51;;;;;;;7.53;5.77;;;17.20;1.00;;;;;;5076641;28;20524;-71
2023/09/15 07:49:19;;;;;;;7.67;5.30;;;17.20;1.00;;;;;;5078228;28;20489;-69
2023/09/15 07:51:48;;;;;;;6.13;5.43;;;17.40;1.00;;;;;;5078921;28;23780;-70
2023/09/15 07:54:16;;;;;;;6.07;5.47;;;17.50;1.00;;;;;;5080430;28;20470;-71
2023/09/15 07:56:43;;;;;;;7.17;5.60;;;17.50;1.00;;;;;;5079868;28;20466;-73
2023/09/15 07:59:10;;;;;;;6.90;4.80;;;17.40;1.00;;;;;;5082384;28;20485;-70
2023/09/15 08:01:37;;;;;;;5.47;4.97;;;17.60;1.00;;;;;;5078740;28;20850;-72
2023/09/15 08:04:05;;;;;;;4.67;4.20;;;17.60;1.00;;;;;;5079235;28;20488;-71
2023/09/15 08:06:34;;;;;;;7.03;5.70;;;17.60;1.00;;;;;;5078936;28;21087;-70
2023/09/15 08:09:00;;;;;;;5.37;4.90;;;17.70;1.00;;;;;;5079417;28;20471;-70
2023/09/15 08:11:27;;;;;;;4.67;4.23;;;17.90;1.00;;;;;;5076174;28;20460;-70
2023/09/15 08:13:54;;;;;;;6.50;5.20;;;18.10;1.00;;;;;;5077541;28;21297;-70
2023/09/15 08:16:21;;;;;;;5.10;4.60;;;18.20;1.00;;;;;;5079817;28;20428;-70
2023/09/15 08:18:49;;;;;;;7.07;4.57;;;18.30;1.00;;;;;;5080400;28;20548;-70
2023/09/15 08:21:15;;;;;;;5.27;4.77;;;18.40;1.00;;;;;;5080610;28;20598;-70
2023/09/15 08:23:44;;;;;;;5.97;4.70;;;18.40;1.00;;;;;;5079458;28;20472;-74
2023/09/15 08:26:11;;;;;;;13.73;12.37;;;18.60;1.00;;;;;;5080223;28;21219;-72
2023/09/15 08:28:38;;;;;;;6.43;4.90;;;18.70;1.00;;;;;;5079072;28;20578;-70
2023/09/15 08:31:05;;;;;;;5.60;4.87;;;18.70;1.00;;;;;;5079902;28;20473;-71
2023/09/15 08:33:32;;;;;;;6.27;4.83;;;18.80;1.00;;;;;;5081134;28;20921;-70
2023/09/15 08:35:59;;;;;;;6.27;5.50;;;19.00;1.00;;;;;;5078833;28;20571;-72
2023/09/15 08:38:31;;;;;;;6.53;4.77;;;19.10;1.00;;;;;;5084030;28;20544;-76
2023/09/15 08:41:03;;;;;;;5.90;4.47;;;19.30;1.00;;;;;;5084681;28;20482;-74
2023/09/15 08:43:31;;;;;;;6.27;4.90;;;19.40;1.00;;;;;;5086073;28;20956;-76
2023/09/15 08:45:59;;;;;;;6.30;4.83;;;19.50;1.00;;;;;;5080876;28;20455;-73
2023/09/15 08:48:31;;;;;;;4.40;4.00;;;19.50;1.00;;;;;;5083357;28;20621;-75
2023/09/15 08:50:59;;;;;;;4.23;3.80;;;19.60;1.00;;;;;;5081562;27;20471;-76
2023/09/15 08:53:27;;;;;;;8.40;4.47;;;19.70;1.00;;;;;;5084963;28;20574;-77
2023/09/15 08:55:54;;;;;;;5.07;4.20;;;19.80;1.00;;;;;;5082121;28;20525;-72
2023/09/15 08:58:22;;;;;;;8.40;4.50;;;20.10;1.00;;;;;;5082853;28;20457;-76
2023/09/15 09:00:50;;;;;;;4.83;4.43;;;20.20;1.00;;;;;;5082066;28;20466;-75
2023/09/15 09:03:17;;;;;;;8.00;4.80;;;20.30;1.00;;;;;;5081508;28;20481;-77
2023/09/15 09:05:48;;;;;;;6.00;3.97;;;20.60;1.00;;;;;;5080676;28;20529;-73
2023/09/15 09:08:17;;;;;;;4.00;3.60;;;20.80;1.00;;;;;;5075264;28;20571;-73
2023/09/15 09:10:44;;;;;;;5.33;4.20;;;21.00;1.00;;;;;;5080837;28;20974;-75
2023/09/15 09:13:12;;;;;;;4.17;3.77;;;21.40;1.00;;;;;;5083489;28;20470;-76
2023/09/15 09:15:42;;;;;;;10.63;8.80;;;22.30;1.00;;;;;;5083990;28;20468;-73
2023/09/15 09:18:15;;;;;;;4.37;3.60;;;23.70;1.00;;;;;;5081980;28;20522;-77
2023/09/15 09:20:42;;;;;;;6.00;5.47;;;25.30;1.00;;;;;;5081938;28;20454;-77
2023/09/15 09:23:09;;;;;;;2.90;2.70;;;26.40;1.00;;;;;;5084743;28;21087;-74
2023/09/15 09:25:39;;;;;;;4.07;3.20;;;27.40;1.00;;;;;;5085429;28;20882;-79
2023/09/15 09:28:06;;;;;;;5.00;3.43;;;28.80;1.00;;;;;;5083037;28;20480;-75
2023/09/15 09:30:33;;;;;;;4.53;3.20;;;29.80;1.00;;;;;;5079369;28;20592;-75
2023/09/15 09:33:03;;;;;;;3.70;3.07;;;30.70;1.00;;;;;;5082661;28;20457;-74
2023/09/15 09:35:30;;;;;;;3.40;3.10;;;30.90;1.00;;;;;;5077758;27;20473;-72
2023/09/15 09:38:00;;;;;;;3.90;3.47;;;30.90;1.00;;;;;;5082779;28;20578;-76
2023/09/15 09:40:27;;;;;;;3.73;3.27;;;31.60;1.00;;;;;;5079345;28;20484;-76
2023/09/15 09:42:55;;;;;;;4.53;2.53;;;32.00;1.00;;;;;;5081421;28;21714;-76
2023/09/15 09:45:26;;;;;;;4.07;3.40;;;32.30;1.00;;;;;;5081700;28;20473;-75
2023/09/15 09:47:54;;;;;;;3.97;3.27;;;32.40;1.00;;;;;;5079051;28;20471;-69
2023/09/15 09:50:23;;;;;;;3.87;3.40;;;31.80;1.00;;;;;;5078063;28;20582;-68
2023/09/15 09:52:51;;;;;;;4.33;3.23;;;31.50;1.00;;;;;;5080411;28;20499;-70
2023/09/15 09:55:18;;;;;;;3.37;2.93;;;31.50;1.00;;;;;;5079184;28;20531;-73
2023/09/15 09:57:45;;;;;;;2.80;2.20;;;31.90;1.00;;;;;;5077900;28;20454;-68
2023/09/15 10:00:18;;;;;;;3.03;2.50;;;32.00;1.00;;;;;;5082119;28;20568;-71
2023/09/15 10:02:45;;;;;;;3.17;2.57;;;32.30;1.00;;;;;;5081594;28;20501;-70
2023/09/15 10:05:12;;;;;;;2.67;2.47;;;32.50;1.00;;;;;;5081351;28;20458;-69
2023/09/15 10:07:41;;;;;;;3.07;2.77;;;32.60;1.00;;;;;;5077452;28;20471;-71
2023/09/15 10:10:09;;;;;;;4.70;3.80;;;32.30;1.00;;;;;;5079417;28;20573;-69
2023/09/15 10:12:36;;;;;;;3.93;2.80;;;31.90;1.00;;;;;;5077800;28;25999;-70
2023/09/15 10:15:06;;;;;;;3.60;2.80;;;32.30;1.00;;;;;;5079631;28;20465;-71
2023/09/15 10:17:34;;;;;;;2.90;2.70;;;32.00;1.00;;;;;;5079022;28;20570;-69
2023/09/15 10:20:02;;;;;;;4.23;3.47;;;31.40;1.00;;;;;;5081185;28;20528;-70
2023/09/15 10:22:29;;;;;;;2.97;2.73;;;31.90;1.00;;;;;;5078975;28;21056;-69
2023/09/15 10:25:00;;;;;;;5.73;3.43;;;32.40;1.00;;;;;;5080386;28;20553;-70
2023/09/15 10:27:29;;;;;;;2.80;2.33;;;33.40;1.00;;;;;;5077931;28;20455;-69
2023/09/15 10:30:04;;;;;;;4.30;3.07;;;33.60;1.00;;;;;;5076747;28;20540;-70
2023/09/15 10:32:37;;;;;;;3.87;3.30;;;33.10;1.00;;;;;;5077487;28;21578;-69
2023/09/15 10:35:05;;;;;;;4.23;3.03;;;33.40;1.00;;;;;;5080498;28;20458;-72
2023/09/15 10:37:33;;;;;;;3.50;3.10;;;33.80;1.00;;;;;;5078345;28;20451;-71
2023/09/15 10:40:01;;;;;;;5.37;3.47;;;32.90;1.00;;;;;;5079095;28;20478;-69
2023/09/15 10:42:28;;;;;;;3.10;2.80;;;33.70;1.00;;;;;;5076748;28;20474;-69
2023/09/15 10:44:55;;;;;;;2.60;2.40;;;33.70;1.00;;;;;;5077805;28;20494;-72
2023/09/15 10:47:22;;;;;;;3.73;3.33;;;33.80;1.00;;;;;;5079470;28;20989;-68
2023/09/15 10:49:51;;;;;;;3.60;3.17;;;32.70;1.00;;;;;;5080541;28;21063;-71
2023/09/15 10:52:18;;;;;;;5.00;4.50;;;32.00;1.00;;;;;;5075981;28;20458;-74
2023/09/15 10:54:45;;;;;;;2.97;2.73;;;32.70;1.00;;;;;;5079557;28;20954;-73
2023/09/15 10:57:15;;;;;;;4.43;3.97;;;32.90;1.00;;;;;;5083573;28;20467;-74
2023/09/15 10:59:42;;;;;;;4.07;2.90;;;31.60;1.00;;;;;;5079210;28;20449;-74
2023/09/15 11:02:10;;;;;;;3.80;3.50;;;32.20;1.00;;;;;;5081406;28;20552;-76
2023/09/15 11:04:37;;;;;;;4.20;3.50;;;33.30;1.00;;;;;;5083567;28;20456;-75
2023/09/15 11:07:06;;;;;;;3.50;3.20;;;34.30;1.00;;;;;;5080390;28;20967;-77
2023/09/15 11:09:33;;;;;;;6.23;5.73;;;35.40;1.00;;;;;;5079947;28;21202;-76
2023/09/15 11:12:02;;;;;;;4.73;3.90;;;35.20;1.00;;;;;;5082431;28;20593;-78
2023/09/15 11:14:34;;;;;;;5.80;3.37;;;34.00;1.00;;;;;;5076432;28;20604;-78
2023/09/15 11:17:00;;;;;;;5.60;3.80;;;35.10;1.00;;;;;;5077991;28;21064;-71
2023/09/15 11:19:30;;;;;;;3.60;3.07;;;35.80;1.00;;;;;;5077047;28;20553;-73
2023/09/15 11:21:58;;;;;;;3.20;3.00;;;35.90;1.00;;;;;;5075947;28;20496;-71
2023/09/15 11:24:26;;;;;;;3.40;3.10;;;36.00;1.00;;;;;;5073645;28;20569;-72
2023/09/15 11:26:53;;;;;;;3.60;3.27;;;36.00;1.00;;;;;;5085664;28;20478;-70
2023/09/15 11:29:26;;;;;;;3.07;2.80;;;35.40;1.00;;;;;;5080211;28;20551;-70
2023/09/15 11:31:56;;;;;;;3.53;3.20;;;35.70;1.00;;;;;;5085006;28;20466;-70
2023/09/15 11:34:23;;;;;;;3.30;3.00;;;35.70;1.00;;;;;;5080174;28;21024;-72
2023/09/15 11:36:52;;;;;;;3.77;2.60;;;35.10;1.00;;;;;;5082955;28;20484;-69
2023/09/15 11:39:19;;;;;;;3.87;3.00;;;35.10;1.00;;;;;;5080571;28;20498;-72
2023/09/15 11:41:53;;;;;;;4.53;3.00;;;34.70;1.00;;;;;;5082959;28;20551;-71
2023/09/15 11:44:21;;;;;;;2.67;2.47;;;34.60;1.00;;;;;;5081329;28;20482;-71
2023/09/15 11:46:49;;;;;;;2.70;2.50;;;34.80;1.00;;;;;;5089577;28;20512;-69
2023/09/15 11:49:18;;;;;;;3.97;2.83;;;35.10;1.00;;;;;;5083602;28;20481;-71
2023/09/15 11:51:46;;;;;;;3.00;2.80;;;35.80;1.00;;;;;;5081147;28;20459;-71
2023/09/15 11:54:13;;;;;;;4.43;4.03;;;34.40;1.00;;;;;;5083735;28;20516;-72
2023/09/15 11:56:41;;;;;;;4.40;4.00;;;34.80;1.00;;;;;;5083282;28;20447;-70
2023/09/15 11:59:08;;;;;;;4.07;2.80;;;34.90;1.00;;;;;;5084084;28;20478;-71
2023/09/15 12:01:36;;;;;;;3.70;3.37;;;34.20;1.00;;;;;;5081764;28;20549;-70
2023/09/15 12:04:04;;;;;;;4.30;3.73;;;34.50;1.00;;;;;;5083872;28;20830;-71
2023/09/15 12:06:32;;;;;;;4.30;3.23;;;35.70;1.00;;;;;;5083102;28;20459;-70
2023/09/15 12:08:59;;;;;;;3.27;3.07;;;36.80;1.00;;;;;;5081594;28;20552;-70
2023/09/15 12:11:26;;;;;;;3.40;3.10;;;38.10;1.00;;;;;;5083144;28;20434;-70
2023/09/15 12:13:54;;;;;;;3.33;3.10;;;37.40;1.00;;;;;;5081223;28;20493;-71
2023/09/15 12:16:25;;;;;;;3.47;3.00;;;37.20;1.00;;;;;;5084178;28;20466;-72
2023/09/15 12:18:52;;;;;;;3.00;2.70;;;37.50;1.00;;;;;;5084998;28;20647;-70
2023/09/15 12:21:24;;;;;;;3.40;3.10;;;37.70;1.00;;;;;;5084618;28;20657;-70
2023/09/15 12:23:55;;;;;;;3.63;3.00;;;36.90;1.00;;;;;;5086250;28;20478;-71
2023/09/15 12:26:22;;;;;;;3.67;3.27;;;35.70;1.00;;;;;;5083137;28;20478;-70
2023/09/15 12:28:49;;;;;;;5.10;3.30;;;36.10;1.00;;;;;;5082065;28;20552;-71
2023/09/15 12:31:18;;;;;;;5.43;3.27;;;36.70;1.00;;;;;;5082484;28;21033;-71
2023/09/15 12:33:45;;;;;;;3.60;3.17;;;37.50;1.00;;;;;;5080865;28;20536;-71
2023/09/15 12:36:12;;;;;;;3.30;3.10;;;38.60;1.00;;;;;;5086419;28;20459;-71
2023/09/15 12:38:39;;;;;;;3.70;3.00;;;39.20;1.00;;;;;;5080998;28;20466;-69
2023/09/15 12:41:08;;;;;;;3.30;2.97;;;39.20;1.00;;;;;;5083658;28;20466;-70
2023/09/15 12:43:35;;;;;;;3.30;3.00;;;39.40;1.00;;;;;;5080813;28;20946;-70
2023/09/15 12:46:03;;;;;;;3.90;3.57;;;39.40;1.00;;;;;;5083147;28;20471;-69
2023/09/15 12:48:30;;;;;;;3.83;3.53;;;38.40;1.00;;;;;;5081783;28;20481;-72
2023/09/15 12:50:57;;;;;;;3.80;3.40;;;38.30;1.00;;;;;;5084194;28;20537;-71
2023/09/15 12:53:24;;;;;;;3.80;3.50;;;38.60;1.00;;;;;;5080677;28;20553;-72
2023/09/15 12:55:51;;;;;;;3.20;3.00;;;37.70;1.00;;;;;;5084350;28;20860;-70
2023/09/15 12:58:19;;;;;;;3.50;3.10;;;36.60;1.00;;;;;;5082614;28;20478;-70
2023/09/15 13:00:46;;;;;;;4.67;4.27;;;35.90;1.00;;;;;;5083205;28;20451;-70
2023/09/15 13:03:13;;;;;;;3.27;2.97;;;36.30;1.00;;;;;;5085099;28;21040;-72